sensor_id;sensor_type;location;lat;lon;timestamp;pressure;altitude;pressure_sealevel;temperature;humidity
24558;BME280;12726;49.148;8.582;2022-08-18T00:01:08;99995.97;;;20.70;71.92
24558;BME280;12726;49.148;8.582;2022-08-18T00:03:55;99995.00;;;20.56;72.29
24558;BME280;12726;49.148;8.582;2022-08-18T00:06:41;99997.94;;;20.65;71.80
24558;BME280;12726;49.148;8.582;2022-08-18T00:09:28;99997.19;;;20.59;71.97
24558;BME280;12726;49.148;8.582;2022-08-18T00:12:18;99998.84;;;20.55;71.75
24558;BME280;12726;49.148;8.582;2022-08-18T00:15:05;99999.38;;;20.57;71.83
24558;BME280;12726;49.148;8.582;2022-08-18T00:17:51;99988.16;;;20.59;71.11
24558;BME280;12726;49.148;8.582;2022-08-18T00:20:36;99987.34;;;20.58;71.62
24558;BME280;12726;49.148;8.582;2022-08-18T00:23:22;99996.88;;;20.61;71.79
24558;BME280;12726;49.148;8.582;2022-08-18T00:26:09;99999.13;;;20.54;71.58
24558;BME280;12726;49.148;8.582;2022-08-18T00:28:55;100004.09;;;20.52;71.19
24558;BME280;12726;49.148;8.582;2022-08-18T00:31:40;100005.47;;;20.49;71.29
24558;BME280;12726;49.148;8.582;2022-08-18T00:34:26;100015.06;;;20.47;71.25
24558;BME280;12726;49.148;8.582;2022-08-18T00:37:11;100023.78;;;20.49;70.87
24558;BME280;12726;49.148;8.582;2022-08-18T00:39:57;100030.06;;;20.49;70.67
24558;BME280;12726;49.148;8.582;2022-08-18T00:42:46;100032.31;;;20.42;70.61
24558;BME280;12726;49.148;8.582;2022-08-18T00:45:34;100037.03;;;20.37;70.86
24558;BME280;12726;49.148;8.582;2022-08-18T00:48:19;100047.16;;;20.36;70.94
24558;BME280;12726;49.148;8.582;2022-08-18T00:51:08;100052.91;;;20.35;70.65
24558;BME280;12726;49.148;8.582;2022-08-18T00:53:59;100062.19;;;20.33;70.13
24558;BME280;12726;49.148;8.582;2022-08-18T00:56:49;100057.56;;;20.29;70.71
24558;BME280;12726;49.148;8.582;2022-08-18T00:59:40;100053.47;;;20.26;70.65
24558;BME280;12726;49.148;8.582;2022-08-18T01:02:28;100056.75;;;20.28;71.01
24558;BME280;12726;49.148;8.582;2022-08-18T01:05:20;100054.00;;;20.28;70.33
24558;BME280;12726;49.148;8.582;2022-08-18T01:08:08;100056.75;;;20.28;69.97
24558;BME280;12726;49.148;8.582;2022-08-18T01:10:57;100060.34;;;20.24;70.31
24558;BME280;12726;49.148;8.582;2022-08-18T01:13:45;100055.72;;;20.19;70.86
24558;BME280;12726;49.148;8.582;2022-08-18T01:16:32;100047.50;;;20.19;71.01
24558;BME280;12726;49.148;8.582;2022-08-18T01:19:36;100048.59;;;20.18;71.24
24558;BME280;12726;49.148;8.582;2022-08-18T01:22:49;100041.44;;;20.27;69.96
24558;BME280;12726;49.148;8.582;2022-08-18T01:25:36;100046.38;;;20.25;70.14
24558;BME280;12726;49.148;8.582;2022-08-18T01:28:41;100029.78;;;20.12;70.72
24558;BME280;12726;49.148;8.582;2022-08-18T01:31:30;100038.81;;;20.12;71.21
24558;BME280;12726;49.148;8.582;2022-08-18T01:34:18;100040.22;;;20.10;71.03
24558;BME280;12726;49.148;8.582;2022-08-18T01:37:06;100047.91;;;20.03;71.58
24558;BME280;12726;49.148;8.582;2022-08-18T01:39:54;100050.09;;;20.01;72.11
24558;BME280;12726;49.148;8.582;2022-08-18T01:42:40;100040.22;;;20.05;71.35
24558;BME280;12726;49.148;8.582;2022-08-18T01:45:29;100043.53;;;20.02;71.58
24558;BME280;12726;49.148;8.582;2022-08-18T01:48:16;100035.31;;;20.07;71.24
24558;BME280;12726;49.148;8.582;2022-08-18T01:51:05;100033.94;;;20.04;71.45
24558;BME280;12726;49.148;8.582;2022-08-18T01:53:51;100042.19;;;19.99;72.00
24558;BME280;12726;49.148;8.582;2022-08-18T01:56:40;100037.59;;;19.94;71.74
24558;BME280;12726;49.148;8.582;2022-08-18T01:59:26;100020.91;;;19.96;72.20
24558;BME280;12726;49.148;8.582;2022-08-18T02:02:16;100033.75;;;19.90;71.91
24558;BME280;12726;49.148;8.582;2022-08-18T02:05:09;100026.97;;;19.83;72.64
24558;BME280;12726;49.148;8.582;2022-08-18T02:07:56;100028.63;;;19.84;72.56
24558;BME280;12726;49.148;8.582;2022-08-18T02:10:42;100023.16;;;19.84;73.06
24558;BME280;12726;49.148;8.582;2022-08-18T02:13:29;100023.47;;;19.77;72.99
24558;BME280;12726;49.148;8.582;2022-08-18T02:16:15;100006.25;;;19.82;73.07
24558;BME280;12726;49.148;8.582;2022-08-18T02:19:01;100012.53;;;19.77;73.43
24558;BME280;12726;49.148;8.582;2022-08-18T02:21:47;100005.47;;;19.71;73.28
24558;BME280;12726;49.148;8.582;2022-08-18T02:24:33;99996.25;;;19.62;74.15
24558;BME280;12726;49.148;8.582;2022-08-18T02:27:19;99999.28;;;19.61;74.17
24558;BME280;12726;49.148;8.582;2022-08-18T02:30:10;99992.72;;;19.57;74.86
24558;BME280;12726;49.148;8.582;2022-08-18T02:32:56;99990.31;;;19.50;74.57
24558;BME280;12726;49.148;8.582;2022-08-18T02:35:42;99990.84;;;19.52;74.91
24558;BME280;12726;49.148;8.582;2022-08-18T02:38:29;99996.31;;;19.52;74.81
24558;BME280;12726;49.148;8.582;2022-08-18T02:41:15;99998.47;;;19.55;75.09
24558;BME280;12726;49.148;8.582;2022-08-18T02:44:02;99993.53;;;19.57;75.08
24558;BME280;12726;49.148;8.582;2022-08-18T02:46:53;99982.06;;;19.55;75.05
24558;BME280;12726;49.148;8.582;2022-08-18T02:49:40;99977.19;;;19.52;75.19
24558;BME280;12726;49.148;8.582;2022-08-18T02:52:25;99976.06;;;19.58;75.12
24558;BME280;12726;49.148;8.582;2022-08-18T02:55:13;99979.13;;;19.51;75.21
24558;BME280;12726;49.148;8.582;2022-08-18T02:57:59;99981.28;;;19.49;75.41
24558;BME280;12726;49.148;8.582;2022-08-18T03:00:45;99976.41;;;19.46;75.22
24558;BME280;12726;49.148;8.582;2022-08-18T03:03:33;99970.09;;;19.46;75.55
24558;BME280;12726;49.148;8.582;2022-08-18T03:06:20;99969.56;;;19.49;76.07
24558;BME280;12726;49.148;8.582;2022-08-18T03:09:08;99963.28;;;19.48;75.68
24558;BME280;12726;49.148;8.582;2022-08-18T03:11:53;99972.00;;;19.50;76.05
24558;BME280;12726;49.148;8.582;2022-08-18T03:14:39;99968.75;;;19.48;76.38
24558;BME280;12726;49.148;8.582;2022-08-18T03:17:25;99964.09;;;19.44;76.74
24558;BME280;12726;49.148;8.582;2022-08-18T03:20:12;99961.91;;;19.51;76.89
24558;BME280;12726;49.148;8.582;2022-08-18T03:22:58;99951.25;;;19.49;77.03
24558;BME280;12726;49.148;8.582;2022-08-18T03:25:47;99955.66;;;19.40;77.34
24558;BME280;12726;49.148;8.582;2022-08-18T03:28:33;99952.41;;;19.38;77.69
24558;BME280;12726;49.148;8.582;2022-08-18T03:31:22;99952.72;;;19.32;78.12
24558;BME280;12726;49.148;8.582;2022-08-18T03:34:08;99960.00;;;19.41;78.41
24558;BME280;12726;49.148;8.582;2022-08-18T03:36:55;99959.78;;;19.38;78.24
24558;BME280;12726;49.148;8.582;2022-08-18T03:39:42;99956.50;;;19.36;78.75
24558;BME280;12726;49.148;8.582;2022-08-18T03:42:27;99942.31;;;19.39;78.68
24558;BME280;12726;49.148;8.582;2022-08-18T03:45:13;99957.56;;;19.40;79.28
24558;BME280;12726;49.148;8.582;2022-08-18T03:47:59;99950.22;;;19.35;79.72
24558;BME280;12726;49.148;8.582;2022-08-18T03:50:45;99948.63;;;19.29;79.63
24558;BME280;12726;49.148;8.582;2022-08-18T03:53:33;99946.44;;;19.26;79.87
24558;BME280;12726;49.148;8.582;2022-08-18T03:56:22;99939.88;;;19.27;79.54
24558;BME280;12726;49.148;8.582;2022-08-18T03:59:10;99949.16;;;19.26;79.82
24558;BME280;12726;49.148;8.582;2022-08-18T04:01:57;99944.56;;;19.22;80.29
24558;BME280;12726;49.148;8.582;2022-08-18T04:04:43;99945.94;;;19.19;80.26
24558;BME280;12726;49.148;8.582;2022-08-18T04:07:29;99957.16;;;19.17;80.78
24558;BME280;12726;49.148;8.582;2022-08-18T04:10:17;99947.88;;;19.13;81.25
24558;BME280;12726;49.148;8.582;2022-08-18T04:13:02;99944.09;;;19.09;81.36
24558;BME280;12726;49.148;8.582;2022-08-18T04:15:49;99947.34;;;19.06;81.51
24558;BME280;12726;49.148;8.582;2022-08-18T04:18:35;99941.88;;;19.11;81.59
24558;BME280;12726;49.148;8.582;2022-08-18T04:21:21;99947.56;;;19.20;81.61
24558;BME280;12726;49.148;8.582;2022-08-18T04:24:09;99950.06;;;19.11;81.50
24558;BME280;12726;49.148;8.582;2022-08-18T04:26:57;99945.44;;;19.07;82.10
24558;BME280;12726;49.148;8.582;2022-08-18T04:29:43;99954.44;;;19.07;82.41
24558;BME280;12726;49.148;8.582;2022-08-18T04:32:30;99953.38;;;19.03;82.51
24558;BME280;12726;49.148;8.582;2022-08-18T04:35:16;99952.25;;;19.04;82.61
24558;BME280;12726;49.148;8.582;2022-08-18T04:38:01;99960.44;;;19.09;83.00
24558;BME280;12726;49.148;8.582;2022-08-18T04:40:48;99965.38;;;19.07;83.19
24558;BME280;12726;49.148;8.582;2022-08-18T04:43:35;99966.44;;;19.11;82.74
24558;BME280;12726;49.148;8.582;2022-08-18T04:46:21;99967.28;;;19.07;83.16
24558;BME280;12726;49.148;8.582;2022-08-18T04:49:08;99969.47;;;19.05;83.62
24558;BME280;12726;49.148;8.582;2022-08-18T04:51:54;99970.84;;;19.02;83.85
24558;BME280;12726;49.148;8.582;2022-08-18T04:54:57;99978.47;;;19.05;83.92
24558;BME280;12726;49.148;8.582;2022-08-18T04:57:44;99978.69;;;19.19;83.32
24558;BME280;12726;49.148;8.582;2022-08-18T05:00:32;99986.66;;;19.10;83.72
24558;BME280;12726;49.148;8.582;2022-08-18T05:03:18;99992.38;;;19.09;83.73
24558;BME280;12726;49.148;8.582;2022-08-18T05:06:04;99992.06;;;19.15;83.31
24558;BME280;12726;49.148;8.582;2022-08-18T05:08:51;99997.81;;;19.14;83.36
24558;BME280;12726;49.148;8.582;2022-08-18T05:11:38;100009.00;;;19.12;83.33
24558;BME280;12726;49.148;8.582;2022-08-18T05:14:24;100011.44;;;19.19;83.69
24558;BME280;12726;49.148;8.582;2022-08-18T05:17:11;100017.16;;;19.23;83.80
24558;BME280;12726;49.148;8.582;2022-08-18T05:19:57;100029.72;;;19.24;83.31
24558;BME280;12726;49.148;8.582;2022-08-18T05:22:43;100023.16;;;19.20;84.10
24558;BME280;12726;49.148;8.582;2022-08-18T05:25:28;100022.88;;;19.21;84.21
24558;BME280;12726;49.148;8.582;2022-08-18T05:28:15;100012.81;;;19.16;83.67
24558;BME280;12726;49.148;8.582;2022-08-18T05:31:05;100013.34;;;19.18;84.18
24558;BME280;12726;49.148;8.582;2022-08-18T05:33:54;100003.25;;;19.19;84.11
24558;BME280;12726;49.148;8.582;2022-08-18T05:36:52;100004.31;;;19.28;83.93
24558;BME280;12726;49.148;8.582;2022-08-18T05:39:51;99998.88;;;19.23;84.08
24558;BME280;12726;49.148;8.582;2022-08-18T05:42:39;99991.47;;;19.29;83.82
24558;BME280;12726;49.148;8.582;2022-08-18T05:45:26;99990.03;;;19.41;83.82
24558;BME280;12726;49.148;8.582;2022-08-18T05:48:13;99978.84;;;19.53;83.13
24558;BME280;12726;49.148;8.582;2022-08-18T05:51:05;99978.78;;;19.58;82.53
24558;BME280;12726;49.148;8.582;2022-08-18T05:53:54;99973.34;;;19.58;82.93
24558;BME280;12726;49.148;8.582;2022-08-18T05:57:01;99968.38;;;19.65;82.77
24558;BME280;12726;49.148;8.582;2022-08-18T05:59:51;99971.06;;;19.70;81.83
24558;BME280;12726;49.148;8.582;2022-08-18T06:02:41;99971.59;;;19.72;82.08
24558;BME280;12726;49.148;8.582;2022-08-18T06:05:33;99966.38;;;19.76;81.93
24558;BME280;12726;49.148;8.582;2022-08-18T06:08:24;99973.16;;;19.83;81.71
24558;BME280;12726;49.148;8.582;2022-08-18T06:11:12;99980.31;;;19.79;81.90
24558;BME280;12726;49.148;8.582;2022-08-18T06:13:58;99984.91;;;19.89;81.05
24558;BME280;12726;49.148;8.582;2022-08-18T06:16:52;99983.25;;;19.88;81.73
24558;BME280;12726;49.148;8.582;2022-08-18T06:19:50;99987.00;;;19.97;80.94
24558;BME280;12726;49.148;8.582;2022-08-18T06:22:43;99988.31;;;20.05;80.73
24558;BME280;12726;49.148;8.582;2022-08-18T06:25:48;99986.31;;;20.15;80.21
24558;BME280;12726;49.148;8.582;2022-08-18T06:28:52;99994.25;;;20.17;79.97
24558;BME280;12726;49.148;8.582;2022-08-18T06:31:47;100000.75;;;20.21;79.64
24558;BME280;12726;49.148;8.582;2022-08-18T06:34:42;100002.13;;;20.18;79.73
24558;BME280;12726;49.148;8.582;2022-08-18T06:37:40;100004.31;;;20.21;79.67
24558;BME280;12726;49.148;8.582;2022-08-18T06:40:45;100007.00;;;20.26;79.54
24558;BME280;12726;49.148;8.582;2022-08-18T06:43:32;100016.63;;;20.19;79.43
24558;BME280;12726;49.148;8.582;2022-08-18T06:46:21;100026.41;;;20.25;78.83
24558;BME280;12726;49.148;8.582;2022-08-18T06:49:10;100036.84;;;20.23;78.63
24558;BME280;12726;49.148;8.582;2022-08-18T06:51:57;100032.97;;;20.29;78.31
24558;BME280;12726;49.148;8.582;2022-08-18T06:54:44;100031.78;;;20.40;78.77
24558;BME280;12726;49.148;8.582;2022-08-18T06:57:33;100026.00;;;20.47;78.48
24558;BME280;12726;49.148;8.582;2022-08-18T07:00:22;100029.53;;;20.47;78.80
24558;BME280;12726;49.148;8.582;2022-08-18T07:03:12;100027.88;;;20.51;78.73
24558;BME280;12726;49.148;8.582;2022-08-18T07:06:00;100016.31;;;20.59;78.08
24558;BME280;12726;49.148;8.582;2022-08-18T07:08:48;100030.38;;;20.77;77.39
24558;BME280;12726;49.148;8.582;2022-08-18T07:11:34;100027.81;;;20.85;76.53
24558;BME280;12726;49.148;8.582;2022-08-18T07:14:27;100018.56;;;21.05;76.83
24558;BME280;12726;49.148;8.582;2022-08-18T07:17:19;100017.63;;;21.20;76.26
24558;BME280;12726;49.148;8.582;2022-08-18T07:20:08;100023.56;;;21.27;75.84
24558;BME280;12726;49.148;8.582;2022-08-18T07:22:58;100034.41;;;21.37;75.42
24558;BME280;12726;49.148;8.582;2022-08-18T07:25:57;100034.59;;;21.40;75.21
24558;BME280;12726;49.148;8.582;2022-08-18T07:28:48;100036.72;;;21.25;75.64
24558;BME280;12726;49.148;8.582;2022-08-18T07:31:39;100040.34;;;21.20;76.02
24558;BME280;12726;49.148;8.582;2022-08-18T07:34:27;100055.22;;;21.09;77.25
24558;BME280;12726;49.148;8.582;2022-08-18T07:37:23;100050.31;;;21.06;76.74
24558;BME280;12726;49.148;8.582;2022-08-18T07:40:19;100059.06;;;21.08;77.17
24558;BME280;12726;49.148;8.582;2022-08-18T07:43:12;100046.56;;;20.97;77.83
24558;BME280;12726;49.148;8.582;2022-08-18T07:46:06;100054.63;;;20.88;78.31
24558;BME280;12726;49.148;8.582;2022-08-18T07:48:56;100051.28;;;20.91;78.25
24558;BME280;12726;49.148;8.582;2022-08-18T07:51:45;100055.47;;;20.84;78.93
24558;BME280;12726;49.148;8.582;2022-08-18T07:54:41;100057.97;;;20.80;79.69
24558;BME280;12726;49.148;8.582;2022-08-18T07:57:37;100050.53;;;20.86;78.95
24558;BME280;12726;49.148;8.582;2022-08-18T08:00:32;100056.72;;;20.67;80.17
24558;BME280;12726;49.148;8.582;2022-08-18T08:03:26;100047.78;;;20.57;80.60
24558;BME280;12726;49.148;8.582;2022-08-18T08:06:19;100050.91;;;20.45;81.75
24558;BME280;12726;49.148;8.582;2022-08-18T08:09:14;100053.34;;;20.47;82.26
24558;BME280;12726;49.148;8.582;2022-08-18T08:12:15;100043.81;;;20.44;82.26
24558;BME280;12726;49.148;8.582;2022-08-18T08:15:14;100039.09;;;20.50;81.71
24558;BME280;12726;49.148;8.582;2022-08-18T08:18:08;100030.56;;;20.56;82.40
24558;BME280;12726;49.148;8.582;2022-08-18T08:20:57;100040.41;;;20.57;82.18
24558;BME280;12726;49.148;8.582;2022-08-18T08:23:51;100040.41;;;20.57;82.51
24558;BME280;12726;49.148;8.582;2022-08-18T08:26:47;100054.19;;;20.42;82.85
24558;BME280;12726;49.148;8.582;2022-08-18T08:29:46;100062.72;;;20.36;83.69
24558;BME280;12726;49.148;8.582;2022-08-18T08:32:36;100076.16;;;20.27;84.32
24558;BME280;12726;49.148;8.582;2022-08-18T08:35:33;100082.47;;;20.22;84.71
24558;BME280;12726;49.148;8.582;2022-08-18T08:38:23;100081.97;;;20.15;84.86
24558;BME280;12726;49.148;8.582;2022-08-18T08:41:21;100079.25;;;20.15;85.30
24558;BME280;12726;49.148;8.582;2022-08-18T08:44:14;100084.75;;;20.10;85.70
24558;BME280;12726;49.148;8.582;2022-08-18T08:47:06;100086.41;;;20.06;86.18
24558;BME280;12726;49.148;8.582;2022-08-18T08:49:56;100084.19;;;20.13;85.85
24558;BME280;12726;49.148;8.582;2022-08-18T08:52:45;100088.00;;;20.17;85.84
24558;BME280;12726;49.148;8.582;2022-08-18T08:55:34;100079.13;;;20.36;85.17
24558;BME280;12726;49.148;8.582;2022-08-18T08:58:27;100066.19;;;20.46;84.49
24558;BME280;12726;49.148;8.582;2022-08-18T09:01:17;100069.34;;;20.63;83.84
24558;BME280;12726;49.148;8.582;2022-08-18T09:04:20;100073.56;;;20.80;83.35
24558;BME280;12726;49.148;8.582;2022-08-18T09:07:18;100087.47;;;20.83;83.37
24558;BME280;12726;49.148;8.582;2022-08-18T09:10:32;100101.09;;;20.93;82.60
24558;BME280;12726;49.148;8.582;2022-08-18T09:13:37;100101.91;;;20.94;83.06
24558;BME280;12726;49.148;8.582;2022-08-18T09:16:40;100102.75;;;20.89;83.51
24558;BME280;12726;49.148;8.582;2022-08-18T09:19:47;100085.63;;;21.07;84.06
24558;BME280;12726;49.148;8.582;2022-08-18T09:22:44;100082.63;;;21.33;82.92
24558;BME280;12726;49.148;8.582;2022-08-18T09:25:44;100069.75;;;21.57;81.29
24558;BME280;12726;49.148;8.582;2022-08-18T09:28:53;100057.78;;;21.72;80.74
24558;BME280;12726;49.148;8.582;2022-08-18T09:31:44;100039.22;;;22.06;78.92
24558;BME280;12726;49.148;8.582;2022-08-18T09:34:43;100033.81;;;22.52;76.44
24558;BME280;12726;49.148;8.582;2022-08-18T09:37:42;100016.13;;;23.46;72.98
24558;BME280;12726;49.148;8.582;2022-08-18T09:40:30;100029.84;;;23.87;70.36
24558;BME280;12726;49.148;8.582;2022-08-18T09:43:38;100050.13;;;23.77;69.78
24558;BME280;12726;49.148;8.582;2022-08-18T09:46:54;100049.91;;;23.73;71.20
24558;BME280;12726;49.148;8.582;2022-08-18T09:49:45;100037.75;;;23.88;69.62
24558;BME280;12726;49.148;8.582;2022-08-18T09:52:54;100042.59;;;24.05;68.66
24558;BME280;12726;49.148;8.582;2022-08-18T09:55:55;100050.13;;;24.13;68.18
24558;BME280;12726;49.148;8.582;2022-08-18T09:58:56;100060.59;;;24.11;68.27
24558;BME280;12726;49.148;8.582;2022-08-18T10:01:45;100050.16;;;24.35;67.05
24558;BME280;12726;49.148;8.582;2022-08-18T10:04:33;100050.16;;;24.57;66.14
24558;BME280;12726;49.148;8.582;2022-08-18T10:07:27;100048.16;;;24.49;65.59
24558;BME280;12726;49.148;8.582;2022-08-18T10:10:21;100052.09;;;24.57;66.45
24558;BME280;12726;49.148;8.582;2022-08-18T10:13:16;100059.16;;;24.72;66.90
24558;BME280;12726;49.148;8.582;2022-08-18T10:16:12;100064.31;;;24.65;66.13
24558;BME280;12726;49.148;8.582;2022-08-18T10:19:09;100064.53;;;24.54;65.18
24558;BME280;12726;49.148;8.582;2022-08-18T10:22:05;100066.72;;;24.66;66.65
24558;BME280;12726;49.148;8.582;2022-08-18T10:24:53;100063.28;;;24.83;65.65
24558;BME280;12726;49.148;8.582;2022-08-18T10:27:49;100048.31;;;24.98;65.33
24558;BME280;12726;49.148;8.582;2022-08-18T10:31:00;100048.88;;;25.17;63.79
24558;BME280;12726;49.148;8.582;2022-08-18T10:34:06;100027.75;;;25.52;62.93
24558;BME280;12726;49.148;8.582;2022-08-18T10:36:54;100024.66;;;25.36;62.02
24558;BME280;12726;49.148;8.582;2022-08-18T10:39:46;100018.34;;;25.53;61.94
24558;BME280;12726;49.148;8.582;2022-08-18T10:42:34;100002.50;;;25.58;62.36
24558;BME280;12726;49.148;8.582;2022-08-18T10:45:25;100000.41;;;25.81;60.93
24558;BME280;12726;49.148;8.582;2022-08-18T10:48:17;99997.38;;;26.00;61.41
24558;BME280;12726;49.148;8.582;2022-08-18T10:51:12;99988.44;;;26.11;59.07
24558;BME280;12726;49.148;8.582;2022-08-18T10:54:05;99985.03;;;25.97;59.53
24558;BME280;12726;49.148;8.582;2022-08-18T10:57:05;99982.25;;;25.97;59.23
24558;BME280;12726;49.148;8.582;2022-08-18T10:59:57;99979.00;;;25.87;59.58
24558;BME280;12726;49.148;8.582;2022-08-18T11:03:01;99986.00;;;25.93;59.33
24558;BME280;12726;49.148;8.582;2022-08-18T11:06:00;99978.38;;;25.81;59.52
24558;BME280;12726;49.148;8.582;2022-08-18T11:08:49;99968.81;;;25.79;59.66
24558;BME280;12726;49.148;8.582;2022-08-18T11:11:39;99951.59;;;25.82;60.05
24558;BME280;12726;49.148;8.582;2022-08-18T11:14:41;99960.34;;;26.01;57.98
24558;BME280;12726;49.148;8.582;2022-08-18T11:17:39;99957.94;;;25.99;58.76
24558;BME280;12726;49.148;8.582;2022-08-18T11:20:29;99963.78;;;26.06;58.68
24558;BME280;12726;49.148;8.582;2022-08-18T11:23:16;99964.22;;;25.65;60.22
24558;BME280;12726;49.148;8.582;2022-08-18T11:26:13;99978.63;;;25.54;60.36
24558;BME280;12726;49.148;8.582;2022-08-18T11:28:59;99980.22;;;25.38;60.30
24558;BME280;12726;49.148;8.582;2022-08-18T11:31:46;99967.94;;;25.52;59.45
24558;BME280;12726;49.148;8.582;2022-08-18T11:34:38;99973.25;;;25.40;59.87
24558;BME280;12726;49.148;8.582;2022-08-18T11:37:28;99974.13;;;25.58;59.98
24558;BME280;12726;49.148;8.582;2022-08-18T11:40:33;99975.38;;;25.52;60.40
24558;BME280;12726;49.148;8.582;2022-08-18T11:43:24;99970.41;;;25.62;60.18
24558;BME280;12726;49.148;8.582;2022-08-18T11:46:13;99966.50;;;25.72;59.51
24558;BME280;12726;49.148;8.582;2022-08-18T11:49:14;99963.44;;;25.82;60.00
24558;BME280;12726;49.148;8.582;2022-08-18T11:52:21;99952.09;;;25.92;58.37
24558;BME280;12726;49.148;8.582;2022-08-18T11:55:18;99959.84;;;26.33;57.50
24558;BME280;12726;49.148;8.582;2022-08-18T11:58:04;99959.63;;;26.56;56.27
24558;BME280;12726;49.148;8.582;2022-08-18T12:00:55;99949.53;;;26.60;56.81
24558;BME280;12726;49.148;8.582;2022-08-18T12:03:44;99945.13;;;26.67;56.49
24558;BME280;12726;49.148;8.582;2022-08-18T12:06:34;99940.19;;;26.90;54.31
24558;BME280;12726;49.148;8.582;2022-08-18T12:09:22;99937.19;;;27.04;54.25
24558;BME280;12726;49.148;8.582;2022-08-18T12:12:17;99918.72;;;27.25;53.60
24558;BME280;12726;49.148;8.582;2022-08-18T12:15:24;99932.75;;;28.03;51.66
24558;BME280;12726;49.148;8.582;2022-08-18T12:18:10;99930.88;;;28.28;51.33
24558;BME280;12726;49.148;8.582;2022-08-18T12:20:57;99927.09;;;28.90;49.21
24558;BME280;12726;49.148;8.582;2022-08-18T12:23:47;99925.47;;;29.01;48.75
24558;BME280;12726;49.148;8.582;2022-08-18T12:26:33;99920.75;;;29.01;48.14
24558;BME280;12726;49.148;8.582;2022-08-18T12:29:19;99910.22;;;29.19;48.14
24558;BME280;12726;49.148;8.582;2022-08-18T12:32:05;99904.31;;;29.20;48.04
24558;BME280;12726;49.148;8.582;2022-08-18T12:34:51;99906.19;;;29.41;47.64
24558;BME280;12726;49.148;8.582;2022-08-18T12:37:41;99894.28;;;29.40;46.41
24558;BME280;12726;49.148;8.582;2022-08-18T12:40:28;99903.41;;;28.68;47.61
24558;BME280;12726;49.148;8.582;2022-08-18T12:43:15;99890.00;;;28.70;48.57
24558;BME280;12726;49.148;8.582;2022-08-18T12:46:00;99895.59;;;28.82;48.00
24558;BME280;12726;49.148;8.582;2022-08-18T12:48:46;99894.78;;;28.81;47.48
24558;BME280;12726;49.148;8.582;2022-08-18T12:51:33;99887.69;;;28.72;48.67
24558;BME280;12726;49.148;8.582;2022-08-18T12:54:21;99891.56;;;28.92;47.29
24558;BME280;12726;49.148;8.582;2022-08-18T12:57:15;99885.81;;;28.39;47.95
24558;BME280;12726;49.148;8.582;2022-08-18T13:00:03;99881.59;;;28.78;47.29
24558;BME280;12726;49.148;8.582;2022-08-18T13:02:48;99880.53;;;28.59;47.46
24558;BME280;12726;49.148;8.582;2022-08-18T13:05:35;99880.28;;;28.52;47.31
24558;BME280;12726;49.148;8.582;2022-08-18T13:08:22;99872.94;;;28.80;46.83
24558;BME280;12726;49.148;8.582;2022-08-18T13:11:08;99875.94;;;28.99;46.68
24558;BME280;12726;49.148;8.582;2022-08-18T13:13:55;99872.91;;;29.16;46.25
24558;BME280;12726;49.148;8.582;2022-08-18T13:16:43;99874.09;;;28.91;46.83
24558;BME280;12726;49.148;8.582;2022-08-18T13:19:29;99868.09;;;28.89;47.52
24558;BME280;12726;49.148;8.582;2022-08-18T13:22:14;99862.06;;;28.99;47.47
24558;BME280;12726;49.148;8.582;2022-08-18T13:25:00;99852.94;;;29.11;46.59
24558;BME280;12726;49.148;8.582;2022-08-18T13:27:46;99858.16;;;29.12;46.72
24558;BME280;12726;49.148;8.582;2022-08-18T13:30:36;99843.63;;;28.91;46.89
24558;BME280;12726;49.148;8.582;2022-08-18T13:33:22;99840.16;;;28.94;46.54
24558;BME280;12726;49.148;8.582;2022-08-18T13:36:08;99834.94;;;29.05;46.42
24558;BME280;12726;49.148;8.582;2022-08-18T13:38:53;99831.53;;;29.24;46.58
24558;BME280;12726;49.148;8.582;2022-08-18T13:41:40;99812.47;;;28.82;46.75
24558;BME280;12726;49.148;8.582;2022-08-18T13:44:26;99816.63;;;28.76;46.78
24558;BME280;12726;49.148;8.582;2022-08-18T13:47:14;99813.03;;;28.63;47.29
24558;BME280;12726;49.148;8.582;2022-08-18T13:49:59;99816.72;;;28.67;47.78
24558;BME280;12726;49.148;8.582;2022-08-18T13:52:45;99797.78;;;28.45;47.89
24558;BME280;12726;49.148;8.582;2022-08-18T13:55:31;99803.09;;;28.50;48.25
24558;BME280;12726;49.148;8.582;2022-08-18T13:58:17;99804.81;;;28.30;48.36
24558;BME280;12726;49.148;8.582;2022-08-18T14:01:05;99790.84;;;28.15;48.85
24558;BME280;12726;49.148;8.582;2022-08-18T14:03:53;99794.03;;;28.04;47.44
24558;BME280;12726;49.148;8.582;2022-08-18T14:06:39;99802.78;;;28.06;48.33
24558;BME280;12726;49.148;8.582;2022-08-18T14:09:25;99799.00;;;28.11;47.17
24558;BME280;12726;49.148;8.582;2022-08-18T14:12:16;99806.50;;;27.98;47.82
24558;BME280;12726;49.148;8.582;2022-08-18T14:15:06;99809.22;;;27.86;48.16
24558;BME280;12726;49.148;8.582;2022-08-18T14:17:52;99812.59;;;27.92;49.04
24558;BME280;12726;49.148;8.582;2022-08-18T14:20:40;99797.69;;;27.84;49.49
24558;BME280;12726;49.148;8.582;2022-08-18T14:23:43;99793.25;;;28.04;50.71
24558;BME280;12726;49.148;8.582;2022-08-18T14:26:43;99804.72;;;28.27;50.42
24558;BME280;12726;49.148;8.582;2022-08-18T14:29:32;99793.41;;;28.32;50.31
24558;BME280;12726;49.148;8.582;2022-08-18T14:32:20;99794.16;;;28.08;50.67
24558;BME280;12726;49.148;8.582;2022-08-18T14:35:08;99790.97;;;28.18;50.63
24558;BME280;12726;49.148;8.582;2022-08-18T14:37:55;99801.94;;;28.27;49.97
24558;BME280;12726;49.148;8.582;2022-08-18T14:40:42;99797.88;;;28.12;49.73
24558;BME280;12726;49.148;8.582;2022-08-18T14:43:28;99802.25;;;27.68;50.30
24558;BME280;12726;49.148;8.582;2022-08-18T14:46:14;99791.88;;;27.65;50.51
24558;BME280;12726;49.148;8.582;2022-08-18T14:48:59;99786.47;;;27.69;50.68
24558;BME280;12726;49.148;8.582;2022-08-18T14:51:45;99799.25;;;27.61;51.30
24558;BME280;12726;49.148;8.582;2022-08-18T14:54:33;99800.31;;;27.81;51.20
24558;BME280;12726;49.148;8.582;2022-08-18T14:57:18;99812.38;;;27.97;51.22